Map

Track Data

SID SEASON NUMBER BASIN SUBBASIN NAME ISO_TIME NATURE LAT LON WMO_WIND WMO_PRES WMO_AGENCY TRACK_TYPE DIST2LAND LANDFALL IFLAG USA_AGENCY USA_ATCF_ID USA_LAT USA_LON USA_RECORD USA_STATUS USA_WIND USA_PRES USA_SSHS USA_R34_NE USA_R34_SE USA_R34_SW USA_R34_NW USA_R50_NE USA_R50_SE USA_R50_SW USA_R50_NW USA_R64_NE USA_R64_SE USA_R64_SW USA_R64_NW USA_POCI USA_ROCI USA_RMW USA_EYE TOKYO_LAT TOKYO_LON TOKYO_GRADE TOKYO_WIND TOKYO_PRES TOKYO_R50_DIR TOKYO_R50_LONG TOKYO_R50_SHORT TOKYO_R30_DIR TOKYO_R30_LONG TOKYO_R30_SHORT TOKYO_LAND CMA_LAT CMA_LON CMA_CAT CMA_WIND CMA_PRES HKO_LAT HKO_LON HKO_CAT HKO_WIND HKO_PRES NEWDELHI_LAT NEWDELHI_LON NEWDELHI_GRADE NEWDELHI_WIND NEWDELHI_PRES NEWDELHI_CI NEWDELHI_DP NEWDELHI_POCI REUNION_LAT REUNION_LON REUNION_TYPE REUNION_WIND REUNION_PRES REUNION_TNUM REUNION_CI REUNION_RMW REUNION_R34_NE REUNION_R34_SE REUNION_R34_SW REUNION_R34_NW REUNION_R50_NE REUNION_R50_SE REUNION_R50_SW REUNION_R50_NW REUNION_R64_NE REUNION_R64_SE REUNION_R64_SW REUNION_R64_NW BOM_LAT BOM_LON BOM_TYPE BOM_WIND BOM_PRES BOM_TNUM BOM_CI BOM_RMW BOM_R34_NE BOM_R34_SE BOM_R34_SW BOM_R34_NW BOM_R50_NE BOM_R50_SE BOM_R50_SW BOM_R50_NW BOM_R64_NE BOM_R64_SE BOM_R64_SW BOM_R64_NW BOM_ROCI BOM_POCI BOM_EYE BOM_POS_METHOD BOM_PRES_METHOD NADI_LAT NADI_LON NADI_CAT NADI_WIND NADI_PRES WELLINGTON_LAT WELLINGTON_LON WELLINGTON_WIND WELLINGTON_PRES DS824_LAT DS824_LON DS824_STAGE DS824_WIND DS824_PRES TD9636_LAT TD9636_LON TD9636_STAGE TD9636_WIND TD9636_PRES TD9635_LAT TD9635_LON TD9635_WIND TD9635_PRES TD9635_ROCI NEUMANN_LAT NEUMANN_LON NEUMANN_CLASS NEUMANN_WIND NEUMANN_PRES MLC_LAT MLC_LON MLC_CLASS MLC_WIND MLC_PRES USA_GUST BOM_GUST BOM_GUST_PER REUNION_GUST REUNION_GUST_PER USA_SEAHGT USA_SEARAD_NE USA_SEARAD_SE USA_SEARAD_SW USA_SEARAD_NW STORM_SPEED STORM_DIR
1863228N26299 1863 16 NA NA NOT_NAMED 1863-08-15 12:00:00 TS 25.5000 -61.5000 main 899 890 _____________O -1 25.5000 -61.5000 TD 30 8 293
1863228N26299 1863 16 NA NA NOT_NAMED 1863-08-15 15:00:00 TS 25.6603 -61.9122 main 900 888 _____________P -1 25.6603 -61.9122 TD 30 8 293
1863228N26299 1863 16 NA NA NOT_NAMED 1863-08-15 18:00:00 TS 25.8000 -62.3000 main 894 890 _____________O -1 25.8000 -62.3000 TD 30 7 290
1863228N26299 1863 16 NA NA NOT_NAMED 1863-08-15 21:00:00 TS 25.9073 -62.6502 main 889 886 _____________P -1 25.9073 -62.6502 TD 30 7 288
1863228N26299 1863 16 NA NA NOT_NAMED 1863-08-16 00:00:00 TS 26.0000 -63.0000 main 890 884 _____________O -1 26.0000 -63.0000 TD 30 7 286
1863228N26299 1863 16 NA NA NOT_NAMED 1863-08-16 03:00:00 TS 26.1000 -63.4000 main 890 885 _____________P -1 26.1000 -63.4000 TD 30 7 286
1863228N26299 1863 16 NA NA NOT_NAMED 1863-08-16 06:00:00 TS 26.2000 -63.8000 main 891 887 _____________O -1 26.2000 -63.8000 TD 30 7 286
1863228N26299 1863 16 NA NA NOT_NAMED 1863-08-16 09:00:00 TS 26.2923 -64.1502 main 894 893 _____________P -1 26.2923 -64.1502 TD 32 7 288
1863228N26299 1863 16 NA NA NOT_NAMED 1863-08-16 12:00:00 TS 26.4000 -64.5000 main 901 900 _____________O -1 26.4000 -64.5000 TS 35 7 290
1863228N26299 1863 16 NA NA NOT_NAMED 1863-08-16 15:00:00 TS 26.5425 -64.9000 main 908 908 _____________P -1 26.5425 -64.9000 TS 37 8 293
1863228N26299 1863 16 NA NA NOT_NAMED 1863-08-16 18:00:00 TS 26.7000 -65.3000 main 922 918 _____________O -1 26.7000 -65.3000 TS 40 7 295
1863228N26299 1863 16 NA NA NOT_NAMED 1863-08-16 21:00:00 TS 26.8498 -65.6502 main 915 915 _____________P -1 26.8498 -65.6502 TS 42 7 296
1863228N26299 1863 16 NA NA NOT_NAMED 1863-08-17 00:00:00 TS 27.0000 -66.0000 main 922 915 _____________O -1 27.0000 -66.0000 TS 45 7 295
1863228N26299 1863 16 NA NA NOT_NAMED 1863-08-17 03:00:00 TS 27.1575 -66.4000 main 925 917 _____________P -1 27.1575 -66.4000 TS 47 8 293
1863228N26299 1863 16 NA NA NOT_NAMED 1863-08-17 06:00:00 TS 27.3000 -66.8000 main 920 913 _____________O -1 27.3000 -66.8000 TS 50 7 290
1863228N26299 1863 16 NA NA NOT_NAMED 1863-08-17 09:00:00 TS 27.3998 -67.1503 main 908 897 _____________P -1 27.3998 -67.1503 TS 52 7 288
1863228N26299 1863 16 NA NA NOT_NAMED 1863-08-17 12:00:00 TS 27.5000 -67.5000 main 897 881 _____________O -1 27.5000 -67.5000 TS 55 7 291
1863228N26299 1863 16 NA NA NOT_NAMED 1863-08-17 15:00:00 TS 27.6500 -67.8999 main 890 877 _____________P -1 27.6500 -67.8999 TS 57 8 293
1863228N26299 1863 16 NA NA NOT_NAMED 1863-08-17 18:00:00 TS 27.8000 -68.3000 main 877 870 _____________O -1 27.8000 -68.3000 TS 60 7 291
1863228N26299 1863 16 NA NA NOT_NAMED 1863-08-17 21:00:00 TS 27.9073 -68.6502 main 865 860 _____________P -1 27.9073 -68.6502 TS 60 7 288
1863228N26299 1863 16 NA NA NOT_NAMED 1863-08-18 00:00:00 TS 28.0000 -69.0000 main 860 851 _____________O -1 28.0000 -69.0000 TS 60 7 286
1863228N26299 1863 16 NA NA NOT_NAMED 1863-08-18 03:00:00 TS 28.1000 -69.4000 main 852 843 _____________P -1 28.1000 -69.4000 TS 65 7 286
1863228N26299 1863 16 NA NA NOT_NAMED 1863-08-18 06:00:00 TS 28.2000 -69.8000 main 846 838 _____________O -1 28.2000 -69.8000 HU 70 7 285
1863228N26299 1863 16 NA NA NOT_NAMED 1863-08-18 09:00:00 TS 28.2849 -70.1577 main 842 830 _____________P -1 28.2849 -70.1577 HU 70 6 288
1863228N26299 1863 16 NA NA NOT_NAMED 1863-08-18 12:00:00 TS 28.4000 -70.5000 main 830 808 _____________O -1 28.4000 -70.5000 HU 70 7 296
1863228N26299 1863 16 NA NA NOT_NAMED 1863-08-18 15:00:00 TS 28.5850 -70.8574 main 804 789 _____________P -1 28.5850 -70.8574 HU 72 7 303
1863228N26299 1863 16 NA NA NOT_NAMED 1863-08-18 18:00:00 TS 28.8000 -71.2000 main 789 776 _____________O -1 28.8000 -71.2000 HU 75 7 306
1863228N26299 1863 16 NA NA NOT_NAMED 1863-08-18 21:00:00 TS 28.9999 -71.5077 main 776 756 _____________P -1 28.9999 -71.5077 HU 75 7 307
1863228N26299 1863 16 NA NA NOT_NAMED 1863-08-19 00:00:00 TS 29.2000 -71.8000 main 756 721 _____________O -1 29.2000 -71.8000 HU 75 7 308
1863228N26299 1863 16 NA NA NOT_NAMED 1863-08-19 03:00:00 TS 29.3999 -72.1001 main 721 686 _____________P -1 29.3999 -72.1001 HU 75 7 307
1863228N26299 1863 16 NA NA NOT_NAMED 1863-08-19 06:00:00 TS 29.6000 -72.4000 main 686 652 _____________O -1 29.6000 -72.4000 HU 75 7 308
1863228N26299 1863 16 NA NA NOT_NAMED 1863-08-19 09:00:00 TS 29.7999 -72.6927 main 652 618 _____________P -1 29.7999 -72.6927 HU 75 7 308
1863228N26299 1863 16 NA NA NOT_NAMED 1863-08-19 12:00:00 TS 30.0000 -73.0000 main 618 584 _____________O -1 30.0000 -73.0000 HU 75 7 305
1863228N26299 1863 16 NA NA NOT_NAMED 1863-08-19 15:00:00 TS 30.2000 -73.3500 main 579 546 _____________P -1 30.2000 -73.3500 HU 75 7 303
1863228N26299 1863 16 NA NA NOT_NAMED 1863-08-19 18:00:00 TS 30.4000 -73.7000 main 546 513 _____________O -1 30.4000 -73.7000 HU 75 7 305
1863228N26299 1863 16 NA NA NOT_NAMED 1863-08-19 21:00:00 TS 30.5999 -74.0077 main 513 480 _____________P -1 30.5999 -74.0077 HU 77 7 308
1863228N26299 1863 16 NA NA NOT_NAMED 1863-08-20 00:00:00 TS 30.8000 -74.3000 main 480 449 _____________O -1 30.8000 -74.3000 HU 80 7 309
1863228N26299 1863 16 NA NA NOT_NAMED 1863-08-20 03:00:00 TS 31.0074 -74.6001 main 449 417 _____________P -1 31.0074 -74.6001 HU 80 7 308
1863228N26299 1863 16 NA NA NOT_NAMED 1863-08-20 06:00:00 TS 31.2000 -74.9000 main 417 390 _____________O -1 31.2000 -74.9000 HU 80 6 301
1863228N26299 1863 16 NA NA NOT_NAMED 1863-08-20 09:00:00 TS 31.3426 -75.2450 main 390 355 _____________P -1 31.3426 -75.2450 HU 80 6 300
1863228N26299 1863 16 NA NA NOT_NAMED 1863-08-20 12:00:00 TS 31.5000 -75.5000 main 355 332 _____________O -1 31.5000 -75.5000 HU 80 5 322
1863228N26299 1863 16 NA NA NOT_NAMED 1863-08-20 15:00:00 TS 31.6973 -75.5748 main 332 314 _____________P -1 31.6973 -75.5748 HU 82 5 2
1863228N26299 1863 16 NA NA NOT_NAMED 1863-08-20 18:00:00 TS 32.0000 -75.5000 main 314 275 _____________O -1 32.0000 -75.5000 HU 85 8 14
1863228N26299 1863 16 NA NA NOT_NAMED 1863-08-20 21:00:00 TS 32.4624 -75.3524 main 265 229 _____________P -1 32.4624 -75.3524 HU 85 11 19
1863228N26299 1863 16 NA NA NOT_NAMED 1863-08-21 00:00:00 TS 33.0000 -75.1000 main 229 205 _____________O -1 33.0000 -75.1000 HU 85 11 25
1863228N26299 1863 16 NA NA NOT_NAMED 1863-08-21 03:00:00 TS 33.5001 -74.7725 main 205 198 _____________P -1 33.5001 -74.7725 HU 85 12 30
1863228N26299 1863 16 NA NA NOT_NAMED 1863-08-21 06:00:00 TS 34.0000 -74.4000 main 200 190 _____________O -1 34.0000 -74.4000 HU 85 12 30
1863228N26299 1863 16 NA NA NOT_NAMED 1863-08-21 09:00:00 TS 34.5071 -74.0792 main 190 182 _____________P -1 34.5071 -74.0792 HU 85 12 30
1863228N26299 1863 16 NA NA NOT_NAMED 1863-08-21 12:00:00 TS 35.0000 -73.7000 main 185 185 _____________O -1 35.0000 -73.7000 HU 85 12 38
1863228N26299 1863 16 NA NA NOT_NAMED 1863-08-21 15:00:00 TS 35.4577 -73.1724 main 210 210 _____________P -1 35.4577 -73.1724 HU 85 13 45
1863228N26299 1863 16 NA NA NOT_NAMED 1863-08-21 18:00:00 TS 35.9000 -72.6000 main 260 260 _____________O -1 35.9000 -72.6000 HU 85 13 44
1863228N26299 1863 16 NA NA NOT_NAMED 1863-08-21 21:00:00 TS 36.3497 -72.0918 main 309 309 _____________P -1 36.3497 -72.0918 HU 85 12 42
1863228N26299 1863 16 NA NA NOT_NAMED 1863-08-22 00:00:00 TS 36.8000 -71.6000 main 350 350 _____________O -1 36.8000 -71.6000 HU 85 12 41
1863228N26299 1863 16 NA NA NOT_NAMED 1863-08-22 03:00:00 TS 37.2573 -71.0996 main 367 367 _____________P -1 37.2573 -71.0996 HU 82 12 41
1863228N26299 1863 16 NA NA NOT_NAMED 1863-08-22 06:00:00 TS 37.7000 -70.6000 main 378 368 _____________O -1 37.7000 -70.6000 HU 80 11 43
1863228N26299 1863 16 NA NA NOT_NAMED 1863-08-22 09:00:00 TS 38.0382 -70.1851 main 373 346 _____________P -1 38.0382 -70.1851 HU 80 11 45
1863228N26299 1863 16 NA NA NOT_NAMED 1863-08-22 12:00:00 TS 38.5000 -69.6000 main 346 299 _____________O -1 38.5000 -69.6000 HU 80 18 45
1863228N26299 1863 16 NA NA NOT_NAMED 1863-08-22 15:00:00 TS 39.2914 -68.5854 main 291 267 _____________P -1 39.2914 -68.5854 HU 80 24 45
1863228N26299 1863 16 NA NA NOT_NAMED 1863-08-22 18:00:00 TS 40.2000 -67.4000 main 274 274 _____________O -1 40.2000 -67.4000 HU 80 975 25 44
1863228N26299 1863 16 NA NA NOT_NAMED 1863-08-22 21:00:00 TS 41.0438 -66.3412 main 282 189 _____________P -1 41.0438 -66.3412 HU 80 23 45
1863228N26299 1863 16 NA NA NOT_NAMED 1863-08-23 00:00:00 TS 41.8000 -65.3000 main 189 146 _____________O -1 41.8000 -65.3000 HU 80 21 49
1863228N26299 1863 16 NA NA NOT_NAMED 1863-08-23 03:00:00 TS 42.3863 -64.2537 main 146 146 _____________P -1 42.3863 -64.2537 HU 77 19 55
1863228N26299 1863 16 NA NA NOT_NAMED 1863-08-23 06:00:00 TS 42.9000 -63.2000 main 163 136 _____________O -1 42.9000 -63.2000 HU 75 17 51
1863228N26299 1863 16 NA NA NOT_NAMED 1863-08-23 09:00:00 TS 43.4387 -62.4548 main 141 126 _____________P -1 43.4387 -62.4548 HU 72 19 55
1863228N26299 1863 16 NA NA NOT_NAMED 1863-08-23 12:00:00 TS 44.0000 -61.0000 main 131 126 _____________O -1 44.0000 -61.0000 HU 70 35 72
1863228N26299 1863 16 NA NA NOT_NAMED 1863-08-23 15:00:00 TS 44.5224 -57.8591 main 224 183 _____________P -1 44.5224 -57.8591 HU 67 51 79
1863228N26299 1863 16 NA NA NOT_NAMED 1863-08-23 18:00:00 TS 45.0000 -54.0000 main 180 158 _____________O -1 45.0000 -54.0000 HU 65 53 80
1863228N26299 1863 16 NA NA NOT_NAMED 1863-08-23 21:00:00 TS 45.4958 -50.4222 main 246 246 _____________P -1 45.4958 -50.4222 HU 62 50 78
1863228N26299 1863 16 NA NA NOT_NAMED 1863-08-24 00:00:00 ET 46.0000 -47.0000 main 456 456 _____________O -1 46.0000 -47.0000 EX 60 46 77
1863228N26299 1863 16 NA NA NOT_NAMED 1863-08-24 03:00:00 ET 46.5099 -43.9101 main 665 665 _____________P -1 46.5099 -43.9101 EX 60 42 76
1863228N26299 1863 16 NA NA NOT_NAMED 1863-08-24 06:00:00 ET 47.0000 -41.0000 main 872 _____________O -1 47.0000 -41.0000 EX 60 41 76

About IBTrACS Database

This database is a web-friendly format of International Best Track Archive for Climate Stewardship (IBTrACS), a global best track data archive curated by NOAA dating back to 1842.

Updated: 2021-10-25